EVRA

Riga International Airport

Riga, Latvia
METAR EVRA 171750Z 19003KT CAVOK 08/07 Q1021 R18/090095 NOSIG
Observed Flight Rules
Oct-17 @ 17:50 UTC (30 minutes ago) Visual Flight Rules
Wind Visibility Clouds
190° at 3 knots 10,000+ meters
  • Clear skies
Temperatures Readings
Current 8°C / 46°F
Dewpoint 7°C / 45°F
Humidity 93%
Altimeter 30.15" Hg
Pressure 1021 hPa
Elevation 10
METAR EVRA 171750Z 19003KT CAVOK 08/07 Q1021 R18/090095 NOSIG
Observed Flight Rules
Oct-17 @ 17:50 UTC
(30 minutes ago)
VFR
Wind Visibility
190° at 3 knots 10,000+ meters
Clouds
  • Clear skies
Temperature Dewpoint
8°C / 46°F 7°C / 45°F
Humidity Altimeter Pressure
93% 30.15" Hg 1021 hPa